sensor_id;sensor_type;location;lat;lon;timestamp;temperature;humidity
5647;DHT22;2845;48.626;9.362;2024-01-30T00:01:17;-0.70;99.90
5647;DHT22;2845;48.626;9.362;2024-01-30T00:03:51;-0.80;99.90
5647;DHT22;2845;48.626;9.362;2024-01-30T00:06:25;-0.70;99.90
5647;DHT22;2845;48.626;9.362;2024-01-30T00:09:01;-0.70;99.90
5647;DHT22;2845;48.626;9.362;2024-01-30T00:11:35;-0.70;99.90
5647;DHT22;2845;48.626;9.362;2024-01-30T00:14:09;-0.80;99.90
5647;DHT22;2845;48.626;9.362;2024-01-30T00:16:43;-0.70;99.90
5647;DHT22;2845;48.626;9.362;2024-01-30T00:19:18;-0.70;99.90
5647;DHT22;2845;48.626;9.362;2024-01-30T00:21:52;-0.70;99.90
5647;DHT22;2845;48.626;9.362;2024-01-30T00:27:02;-0.80;99.90
5647;DHT22;2845;48.626;9.362;2024-01-30T00:29:36;-0.70;99.90
5647;DHT22;2845;48.626;9.362;2024-01-30T00:32:10;-0.70;99.90
5647;DHT22;2845;48.626;9.362;2024-01-30T00:34:45;-0.70;99.90
5647;DHT22;2845;48.626;9.362;2024-01-30T00:37:19;3.60;99.90
5647;DHT22;2845;48.626;9.362;2024-01-30T00:39:55;-0.60;99.90
5647;DHT22;2845;48.626;9.362;2024-01-30T00:42:29;-0.60;99.90
5647;DHT22;2845;48.626;9.362;2024-01-30T00:45:04;-0.60;99.90
5647;DHT22;2845;48.626;9.362;2024-01-30T00:47:39;0.60;99.90
5647;DHT22;2845;48.626;9.362;2024-01-30T00:50:13;-0.60;99.90
5647;DHT22;2845;48.626;9.362;2024-01-30T00:52:47;-0.60;99.90
5647;DHT22;2845;48.626;9.362;2024-01-30T00:55:22;-0.50;99.90
5647;DHT22;2845;48.626;9.362;2024-01-30T00:57:57;-0.50;99.90
5647;DHT22;2845;48.626;9.362;2024-01-30T01:00:32;-0.60;99.90
5647;DHT22;2845;48.626;9.362;2024-01-30T01:03:06;-0.60;99.90
5647;DHT22;2845;48.626;9.362;2024-01-30T01:05:41;-0.60;99.90
5647;DHT22;2845;48.626;9.362;2024-01-30T01:08:15;-0.70;99.90
5647;DHT22;2845;48.626;9.362;2024-01-30T01:10:52;-0.70;99.90
5647;DHT22;2845;48.626;9.362;2024-01-30T01:13:26;-0.70;99.90
5647;DHT22;2845;48.626;9.362;2024-01-30T01:16:00;-0.70;99.90
5647;DHT22;2845;48.626;9.362;2024-01-30T01:18:34;-0.10;99.90
5647;DHT22;2845;48.626;9.362;2024-01-30T01:21:09;-0.70;99.90
5647;DHT22;2845;48.626;9.362;2024-01-30T01:23:43;-0.80;99.90
5647;DHT22;2845;48.626;9.362;2024-01-30T01:28:54;-0.90;99.90
5647;DHT22;2845;48.626;9.362;2024-01-30T01:31:28;-0.80;99.90
5647;DHT22;2845;48.626;9.362;2024-01-30T01:34:02;-0.80;99.90
5647;DHT22;2845;48.626;9.362;2024-01-30T01:36:36;-0.80;99.90
5647;DHT22;2845;48.626;9.362;2024-01-30T01:39:11;-0.80;99.90
5647;DHT22;2845;48.626;9.362;2024-01-30T01:41:46;2.10;99.90
5647;DHT22;2845;48.626;9.362;2024-01-30T01:44:20;-0.80;99.90
5647;DHT22;2845;48.626;9.362;2024-01-30T01:46:54;-0.70;99.90
5647;DHT22;2845;48.626;9.362;2024-01-30T01:49:29;-0.80;99.90
5647;DHT22;2845;48.626;9.362;2024-01-30T01:52:03;-0.40;99.90
5647;DHT22;2845;48.626;9.362;2024-01-30T01:54:38;-0.70;99.90
5647;DHT22;2845;48.626;9.362;2024-01-30T01:57:14;-0.70;99.90
5647;DHT22;2845;48.626;9.362;2024-01-30T01:59:48;-0.60;99.90
5647;DHT22;2845;48.626;9.362;2024-01-30T02:02:23;-0.60;99.90
5647;DHT22;2845;48.626;9.362;2024-01-30T02:04:58;-0.70;99.90
5647;DHT22;2845;48.626;9.362;2024-01-30T02:07:33;-0.60;99.90
5647;DHT22;2845;48.626;9.362;2024-01-30T02:10:08;-0.60;99.90
5647;DHT22;2845;48.626;9.362;2024-01-30T02:12:44;-0.60;99.90
5647;DHT22;2845;48.626;9.362;2024-01-30T02:15:18;-0.60;99.90
5647;DHT22;2845;48.626;9.362;2024-01-30T02:17:52;-0.60;99.90
5647;DHT22;2845;48.626;9.362;2024-01-30T02:20:29;-0.60;99.90
5647;DHT22;2845;48.626;9.362;2024-01-30T02:23:07;-0.60;99.90
5647;DHT22;2845;48.626;9.362;2024-01-30T02:25:43;-0.60;99.90
5647;DHT22;2845;48.626;9.362;2024-01-30T02:28:18;1.00;99.90
5647;DHT22;2845;48.626;9.362;2024-01-30T02:30:53;-0.70;99.90
5647;DHT22;2845;48.626;9.362;2024-01-30T02:33:27;-0.80;99.90
5647;DHT22;2845;48.626;9.362;2024-01-30T02:36:01;-0.80;99.90
5647;DHT22;2845;48.626;9.362;2024-01-30T02:38:36;-0.80;99.90
5647;DHT22;2845;48.626;9.362;2024-01-30T02:41:10;-0.80;99.90
5647;DHT22;2845;48.626;9.362;2024-01-30T02:43:44;-0.90;99.90
5647;DHT22;2845;48.626;9.362;2024-01-30T02:46:19;-0.90;99.90
5647;DHT22;2845;48.626;9.362;2024-01-30T02:48:54;-0.90;99.90
5647;DHT22;2845;48.626;9.362;2024-01-30T02:51:28;-0.90;99.90
5647;DHT22;2845;48.626;9.362;2024-01-30T02:54:03;-1.00;99.90
5647;DHT22;2845;48.626;9.362;2024-01-30T02:56:37;-1.00;99.90
5647;DHT22;2845;48.626;9.362;2024-01-30T02:59:12;-1.00;99.90
5647;DHT22;2845;48.626;9.362;2024-01-30T03:01:46;-1.00;99.90
5647;DHT22;2845;48.626;9.362;2024-01-30T03:04:21;-1.00;99.90
5647;DHT22;2845;48.626;9.362;2024-01-30T03:06:54;-1.20;99.90
5647;DHT22;2845;48.626;9.362;2024-01-30T03:09:29;-1.10;99.90
5647;DHT22;2845;48.626;9.362;2024-01-30T03:12:04;-1.20;99.90
5647;DHT22;2845;48.626;9.362;2024-01-30T03:14:42;-1.10;99.90
5647;DHT22;2845;48.626;9.362;2024-01-30T03:17:17;-1.00;99.90
5647;DHT22;2845;48.626;9.362;2024-01-30T03:19:51;-1.10;99.90
5647;DHT22;2845;48.626;9.362;2024-01-30T03:22:25;-1.00;99.90
5647;DHT22;2845;48.626;9.362;2024-01-30T03:25:00;-1.10;99.90
5647;DHT22;2845;48.626;9.362;2024-01-30T03:27:35;-1.20;99.90
5647;DHT22;2845;48.626;9.362;2024-01-30T03:30:09;-1.20;99.90
5647;DHT22;2845;48.626;9.362;2024-01-30T03:32:44;-1.20;99.90
5647;DHT22;2845;48.626;9.362;2024-01-30T03:35:18;-1.20;99.90
5647;DHT22;2845;48.626;9.362;2024-01-30T03:37:53;-1.20;99.90
5647;DHT22;2845;48.626;9.362;2024-01-30T03:40:28;-1.20;99.90
5647;DHT22;2845;48.626;9.362;2024-01-30T03:43:02;-1.20;99.90
5647;DHT22;2845;48.626;9.362;2024-01-30T03:45:38;-1.30;99.90
5647;DHT22;2845;48.626;9.362;2024-01-30T03:48:12;-0.60;99.90
5647;DHT22;2845;48.626;9.362;2024-01-30T03:50:46;-1.30;99.90
5647;DHT22;2845;48.626;9.362;2024-01-30T03:53:20;-1.30;99.90
5647;DHT22;2845;48.626;9.362;2024-01-30T03:55:56;1.10;99.90
5647;DHT22;2845;48.626;9.362;2024-01-30T03:58:30;-1.40;99.90
5647;DHT22;2845;48.626;9.362;2024-01-30T04:01:04;-1.40;99.90
5647;DHT22;2845;48.626;9.362;2024-01-30T04:03:39;-1.50;99.90
5647;DHT22;2845;48.626;9.362;2024-01-30T04:06:13;-1.50;99.90
5647;DHT22;2845;48.626;9.362;2024-01-30T04:08:47;-1.50;99.90
5647;DHT22;2845;48.626;9.362;2024-01-30T04:13:57;-1.50;99.90
5647;DHT22;2845;48.626;9.362;2024-01-30T04:16:32;-1.50;99.90
5647;DHT22;2845;48.626;9.362;2024-01-30T04:19:06;-1.40;99.90
5647;DHT22;2845;48.626;9.362;2024-01-30T04:21:40;-1.50;99.90
5647;DHT22;2845;48.626;9.362;2024-01-30T04:24:14;-1.50;99.90
5647;DHT22;2845;48.626;9.362;2024-01-30T04:29:27;-1.50;99.90
5647;DHT22;2845;48.626;9.362;2024-01-30T04:32:01;-1.60;99.90
5647;DHT22;2845;48.626;9.362;2024-01-30T04:34:36;-1.60;99.90
5647;DHT22;2845;48.626;9.362;2024-01-30T04:37:10;-1.60;99.90
5647;DHT22;2845;48.626;9.362;2024-01-30T04:39:44;-1.60;99.90
5647;DHT22;2845;48.626;9.362;2024-01-30T04:42:20;-1.60;99.90
5647;DHT22;2845;48.626;9.362;2024-01-30T04:44:54;-1.70;99.90
5647;DHT22;2845;48.626;9.362;2024-01-30T04:47:28;-1.70;99.90
5647;DHT22;2845;48.626;9.362;2024-01-30T04:50:03;-1.10;99.90
5647;DHT22;2845;48.626;9.362;2024-01-30T04:52:38;-1.60;99.90
5647;DHT22;2845;48.626;9.362;2024-01-30T04:55:12;-1.60;99.90
5647;DHT22;2845;48.626;9.362;2024-01-30T05:02:57;-1.60;99.90
5647;DHT22;2845;48.626;9.362;2024-01-30T05:05:31;-1.60;99.90
5647;DHT22;2845;48.626;9.362;2024-01-30T05:08:06;-1.70;99.90
5647;DHT22;2845;48.626;9.362;2024-01-30T05:10:40;-1.70;99.90
5647;DHT22;2845;48.626;9.362;2024-01-30T05:15:50;-1.70;99.90
5647;DHT22;2845;48.626;9.362;2024-01-30T05:18:24;-1.70;99.90
5647;DHT22;2845;48.626;9.362;2024-01-30T05:20:58;-1.70;99.90
5647;DHT22;2845;48.626;9.362;2024-01-30T05:23:33;-1.70;99.90
5647;DHT22;2845;48.626;9.362;2024-01-30T05:26:07;-1.60;99.90
5647;DHT22;2845;48.626;9.362;2024-01-30T05:28:43;-1.60;99.90
5647;DHT22;2845;48.626;9.362;2024-01-30T05:31:17;-1.60;99.90
5647;DHT22;2845;48.626;9.362;2024-01-30T05:33:52;-1.60;99.90
5647;DHT22;2845;48.626;9.362;2024-01-30T05:36:26;-1.60;99.90
5647;DHT22;2845;48.626;9.362;2024-01-30T05:39:00;2.20;99.90
5647;DHT22;2845;48.626;9.362;2024-01-30T05:41:36;1.10;99.90
5647;DHT22;2845;48.626;9.362;2024-01-30T05:44:12;-1.70;99.90
5647;DHT22;2845;48.626;9.362;2024-01-30T05:46:46;-1.70;99.90
5647;DHT22;2845;48.626;9.362;2024-01-30T05:49:20;-1.70;99.90
5647;DHT22;2845;48.626;9.362;2024-01-30T05:51:54;-1.70;99.90
5647;DHT22;2845;48.626;9.362;2024-01-30T05:54:28;-1.60;99.90
5647;DHT22;2845;48.626;9.362;2024-01-30T05:57:03;-1.60;99.90
5647;DHT22;2845;48.626;9.362;2024-01-30T05:59:39;-1.70;99.90
5647;DHT22;2845;48.626;9.362;2024-01-30T06:02:14;-1.70;99.90
5647;DHT22;2845;48.626;9.362;2024-01-30T06:04:48;-1.90;99.90
5647;DHT22;2845;48.626;9.362;2024-01-30T06:07:22;-1.80;99.90
5647;DHT22;2845;48.626;9.362;2024-01-30T06:09:57;-1.80;99.90
5647;DHT22;2845;48.626;9.362;2024-01-30T06:12:33;-1.70;99.90
5647;DHT22;2845;48.626;9.362;2024-01-30T06:15:09;-1.70;99.90
5647;DHT22;2845;48.626;9.362;2024-01-30T06:17:45;-1.70;99.90
5647;DHT22;2845;48.626;9.362;2024-01-30T06:20:19;-1.70;99.90
5647;DHT22;2845;48.626;9.362;2024-01-30T06:22:53;-1.20;99.90
5647;DHT22;2845;48.626;9.362;2024-01-30T06:25:27;2.20;99.90
5647;DHT22;2845;48.626;9.362;2024-01-30T06:28:02;-1.70;99.90
5647;DHT22;2845;48.626;9.362;2024-01-30T06:30:37;-1.70;99.90
5647;DHT22;2845;48.626;9.362;2024-01-30T06:33:12;-1.70;99.90
5647;DHT22;2845;48.626;9.362;2024-01-30T06:35:47;1.00;99.90
5647;DHT22;2845;48.626;9.362;2024-01-30T06:38:21;-1.80;99.90
5647;DHT22;2845;48.626;9.362;2024-01-30T06:40:55;-1.80;99.90
5647;DHT22;2845;48.626;9.362;2024-01-30T06:43:29;-1.80;99.90
5647;DHT22;2845;48.626;9.362;2024-01-30T06:46:05;-1.80;99.90
5647;DHT22;2845;48.626;9.362;2024-01-30T06:48:39;-1.90;99.90
5647;DHT22;2845;48.626;9.362;2024-01-30T06:51:14;-1.90;99.90
5647;DHT22;2845;48.626;9.362;2024-01-30T06:53:50;-1.90;99.90
5647;DHT22;2845;48.626;9.362;2024-01-30T06:56:24;-1.90;99.90
5647;DHT22;2845;48.626;9.362;2024-01-30T06:58:58;-1.90;99.90
5647;DHT22;2845;48.626;9.362;2024-01-30T07:01:34;-1.80;99.90
5647;DHT22;2845;48.626;9.362;2024-01-30T07:04:08;-1.90;99.90
5647;DHT22;2845;48.626;9.362;2024-01-30T07:06:42;-1.80;99.90
5647;DHT22;2845;48.626;9.362;2024-01-30T07:09:16;-1.80;99.90
5647;DHT22;2845;48.626;9.362;2024-01-30T07:11:50;-1.60;99.90
5647;DHT22;2845;48.626;9.362;2024-01-30T07:14:25;-1.60;99.90
5647;DHT22;2845;48.626;9.362;2024-01-30T07:19:36;-1.60;99.90
5647;DHT22;2845;48.626;9.362;2024-01-30T07:22:10;-1.70;99.90
5647;DHT22;2845;48.626;9.362;2024-01-30T07:24:44;-1.50;99.90
5647;DHT22;2845;48.626;9.362;2024-01-30T07:27:20;-1.50;99.90
5647;DHT22;2845;48.626;9.362;2024-01-30T07:29:55;-1.60;99.90
5647;DHT22;2845;48.626;9.362;2024-01-30T07:35:06;-1.60;99.90
5647;DHT22;2845;48.626;9.362;2024-01-30T07:37:41;-1.40;99.90
5647;DHT22;2845;48.626;9.362;2024-01-30T07:40:16;-1.40;99.90
5647;DHT22;2845;48.626;9.362;2024-01-30T07:42:50;-1.50;99.90
5647;DHT22;2845;48.626;9.362;2024-01-30T07:45:27;-1.50;99.90
5647;DHT22;2845;48.626;9.362;2024-01-30T07:48:07;-1.40;99.90
5647;DHT22;2845;48.626;9.362;2024-01-30T07:50:41;-1.40;99.90
5647;DHT22;2845;48.626;9.362;2024-01-30T07:53:15;-1.30;99.90
5647;DHT22;2845;48.626;9.362;2024-01-30T07:55:49;-1.30;99.90
5647;DHT22;2845;48.626;9.362;2024-01-30T07:58:23;-1.20;99.90
5647;DHT22;2845;48.626;9.362;2024-01-30T08:01:00;-1.20;99.90
5647;DHT22;2845;48.626;9.362;2024-01-30T08:03:35;-1.10;99.90
5647;DHT22;2845;48.626;9.362;2024-01-30T08:06:12;-1.00;99.90
5647;DHT22;2845;48.626;9.362;2024-01-30T08:08:46;-0.90;99.90
5647;DHT22;2845;48.626;9.362;2024-01-30T08:11:20;-0.90;99.90
5647;DHT22;2845;48.626;9.362;2024-01-30T08:13:58;-0.90;99.90
5647;DHT22;2845;48.626;9.362;2024-01-30T08:16:32;-0.80;99.90
5647;DHT22;2845;48.626;9.362;2024-01-30T08:19:07;-0.70;99.90
5647;DHT22;2845;48.626;9.362;2024-01-30T08:21:42;-0.60;99.90
5647;DHT22;2845;48.626;9.362;2024-01-30T08:24:16;-0.60;99.90
5647;DHT22;2845;48.626;9.362;2024-01-30T08:26:50;-0.50;99.90
5647;DHT22;2845;48.626;9.362;2024-01-30T08:29:24;-0.50;99.90
5647;DHT22;2845;48.626;9.362;2024-01-30T08:31:59;-0.30;99.90
5647;DHT22;2845;48.626;9.362;2024-01-30T08:34:34;-0.80;99.90
5647;DHT22;2845;48.626;9.362;2024-01-30T08:37:08;-0.10;99.90
5647;DHT22;2845;48.626;9.362;2024-01-30T08:39:43;0.00;99.90
5647;DHT22;2845;48.626;9.362;2024-01-30T08:47:30;0.50;99.90
5647;DHT22;2845;48.626;9.362;2024-01-30T08:50:07;0.70;99.90
5647;DHT22;2845;48.626;9.362;2024-01-30T08:55:19;1.00;99.90
5647;DHT22;2845;48.626;9.362;2024-01-30T08:57:53;1.20;99.90
5647;DHT22;2845;48.626;9.362;2024-01-30T09:00:27;1.30;99.90
5647;DHT22;2845;48.626;9.362;2024-01-30T09:03:03;1.40;99.90
5647;DHT22;2845;48.626;9.362;2024-01-30T09:05:39;1.50;99.90
5647;DHT22;2845;48.626;9.362;2024-01-30T09:08:13;1.60;99.90
5647;DHT22;2845;48.626;9.362;2024-01-30T09:13:22;1.90;99.80
5647;DHT22;2845;48.626;9.362;2024-01-30T09:15:56;2.00;99.90
5647;DHT22;2845;48.626;9.362;2024-01-30T09:18:30;2.20;99.80
5647;DHT22;2845;48.626;9.362;2024-01-30T09:21:06;2.30;99.60
5647;DHT22;2845;48.626;9.362;2024-01-30T09:23:40;2.40;99.40
5647;DHT22;2845;48.626;9.362;2024-01-30T09:26:14;2.40;99.30
5647;DHT22;2845;48.626;9.362;2024-01-30T09:28:49;2.40;99.30
5647;DHT22;2845;48.626;9.362;2024-01-30T09:31:23;2.50;99.10
5647;DHT22;2845;48.626;9.362;2024-01-30T09:33:57;2.40;99.00
5647;DHT22;2845;48.626;9.362;2024-01-30T09:36:33;2.50;98.90
5647;DHT22;2845;48.626;9.362;2024-01-30T09:39:07;2.40;98.50
5647;DHT22;2845;48.626;9.362;2024-01-30T09:41:45;2.50;98.70
5647;DHT22;2845;48.626;9.362;2024-01-30T09:44:23;2.50;99.00
5647;DHT22;2845;48.626;9.362;2024-01-30T09:46:59;2.70;98.90
5647;DHT22;2845;48.626;9.362;2024-01-30T09:49:36;2.80;99.10
5647;DHT22;2845;48.626;9.362;2024-01-30T09:52:14;4.70;99.50
5647;DHT22;2845;48.626;9.362;2024-01-30T09:54:49;3.10;98.90
5647;DHT22;2845;48.626;9.362;2024-01-30T09:57:25;3.30;98.90
5647;DHT22;2845;48.626;9.362;2024-01-30T09:59:59;3.40;98.70
5647;DHT22;2845;48.626;9.362;2024-01-30T10:02:34;3.60;98.60
5647;DHT22;2845;48.626;9.362;2024-01-30T10:05:08;3.70;98.50
5647;DHT22;2845;48.626;9.362;2024-01-30T10:07:52;3.80;98.30
5647;DHT22;2845;48.626;9.362;2024-01-30T10:10:28;3.80;98.10
5647;DHT22;2845;48.626;9.362;2024-01-30T10:13:02;6.10;98.50
5647;DHT22;2845;48.626;9.362;2024-01-30T10:15:37;4.00;98.10
5647;DHT22;2845;48.626;9.362;2024-01-30T10:18:13;4.10;98.20
5647;DHT22;2845;48.626;9.362;2024-01-30T10:20:47;4.10;98.10
5647;DHT22;2845;48.626;9.362;2024-01-30T10:23:22;4.30;98.10
5647;DHT22;2845;48.626;9.362;2024-01-30T10:25:58;4.40;98.00
5647;DHT22;2845;48.626;9.362;2024-01-30T10:28:32;4.50;98.00
5647;DHT22;2845;48.626;9.362;2024-01-30T10:31:07;4.60;98.00
5647;DHT22;2845;48.626;9.362;2024-01-30T10:33:42;4.70;97.50
5647;DHT22;2845;48.626;9.362;2024-01-30T10:36:18;4.70;97.00
5647;DHT22;2845;48.626;9.362;2024-01-30T10:38:59;4.90;97.20
5647;DHT22;2845;48.626;9.362;2024-01-30T10:41:39;6.30;97.30
5647;DHT22;2845;48.626;9.362;2024-01-30T10:44:19;5.20;97.10
5647;DHT22;2845;48.626;9.362;2024-01-30T10:47:00;6.00;97.20
5647;DHT22;2845;48.626;9.362;2024-01-30T10:49:38;5.50;97.00
5647;DHT22;2845;48.626;9.362;2024-01-30T10:52:14;5.50;96.90
5647;DHT22;2845;48.626;9.362;2024-01-30T10:57:27;5.80;96.60
5647;DHT22;2845;48.626;9.362;2024-01-30T11:00:04;5.90;96.60
5647;DHT22;2845;48.626;9.362;2024-01-30T11:02:44;5.90;96.60
5647;DHT22;2845;48.626;9.362;2024-01-30T11:05:24;6.00;96.50
5647;DHT22;2845;48.626;9.362;2024-01-30T11:08:14;8.30;97.00
5647;DHT22;2845;48.626;9.362;2024-01-30T11:10:49;6.20;96.50
5647;DHT22;2845;48.626;9.362;2024-01-30T11:13:27;6.30;96.50
5647;DHT22;2845;48.626;9.362;2024-01-30T11:16:03;6.40;96.30
5647;DHT22;2845;48.626;9.362;2024-01-30T11:18:38;6.50;96.20
5647;DHT22;2845;48.626;9.362;2024-01-30T11:21:13;6.50;96.00
5647;DHT22;2845;48.626;9.362;2024-01-30T11:23:49;6.60;96.10
5647;DHT22;2845;48.626;9.362;2024-01-30T11:26:27;3.90;95.40
5647;DHT22;2845;48.626;9.362;2024-01-30T11:29:03;6.80;96.10
5647;DHT22;2845;48.626;9.362;2024-01-30T11:31:38;6.80;95.90
5647;DHT22;2845;48.626;9.362;2024-01-30T11:34:14;6.90;96.00
5647;DHT22;2845;48.626;9.362;2024-01-30T11:36:51;6.90;95.80
5647;DHT22;2845;48.626;9.362;2024-01-30T11:39:31;7.10;95.90
5647;DHT22;2845;48.626;9.362;2024-01-30T11:44:46;7.20;95.70
5647;DHT22;2845;48.626;9.362;2024-01-30T11:47:22;7.30;95.70
5647;DHT22;2845;48.626;9.362;2024-01-30T11:49:57;7.40;95.60
5647;DHT22;2845;48.626;9.362;2024-01-30T11:52:33;7.40;95.60
5647;DHT22;2845;48.626;9.362;2024-01-30T11:55:08;7.50;95.40
5647;DHT22;2845;48.626;9.362;2024-01-30T12:00:19;7.60;95.30
5647;DHT22;2845;48.626;9.362;2024-01-30T12:02:54;7.70;95.40
5647;DHT22;2845;48.626;9.362;2024-01-30T12:05:29;7.70;95.20
5647;DHT22;2845;48.626;9.362;2024-01-30T12:08:04;7.80;95.20
5647;DHT22;2845;48.626;9.362;2024-01-30T12:10:40;7.90;95.30
5647;DHT22;2845;48.626;9.362;2024-01-30T12:13:16;8.00;95.10
5647;DHT22;2845;48.626;9.362;2024-01-30T12:15:50;8.00;95.10
5647;DHT22;2845;48.626;9.362;2024-01-30T12:18:24;9.90;95.70
5647;DHT22;2845;48.626;9.362;2024-01-30T12:20:59;8.10;95.10
5647;DHT22;2845;48.626;9.362;2024-01-30T12:23:35;8.20;95.30
5647;DHT22;2845;48.626;9.362;2024-01-30T12:26:10;8.20;95.20
5647;DHT22;2845;48.626;9.362;2024-01-30T12:28:49;11.70;96.00
5647;DHT22;2845;48.626;9.362;2024-01-30T12:31:27;8.40;95.10
5647;DHT22;2845;48.626;9.362;2024-01-30T12:34:02;8.40;95.00
5647;DHT22;2845;48.626;9.362;2024-01-30T12:36:36;8.40;95.00
5647;DHT22;2845;48.626;9.362;2024-01-30T12:39:11;8.40;95.00
5647;DHT22;2845;48.626;9.362;2024-01-30T12:41:47;8.50;95.20
5647;DHT22;2845;48.626;9.362;2024-01-30T12:44:23;8.50;95.00
5647;DHT22;2845;48.626;9.362;2024-01-30T12:46:57;7.60;94.70
5647;DHT22;2845;48.626;9.362;2024-01-30T12:49:31;8.60;94.90
5647;DHT22;2845;48.626;9.362;2024-01-30T12:52:05;8.70;94.90
5647;DHT22;2845;48.626;9.362;2024-01-30T12:54:40;8.70;94.80
5647;DHT22;2845;48.626;9.362;2024-01-30T12:57:14;8.70;94.80
5647;DHT22;2845;48.626;9.362;2024-01-30T13:02:24;8.70;94.90
5647;DHT22;2845;48.626;9.362;2024-01-30T13:04:59;8.80;95.10
5647;DHT22;2845;48.626;9.362;2024-01-30T13:07:33;8.80;94.70
5647;DHT22;2845;48.626;9.362;2024-01-30T13:10:08;11.20;95.40
5647;DHT22;2845;48.626;9.362;2024-01-30T13:12:43;9.00;94.80
5647;DHT22;2845;48.626;9.362;2024-01-30T13:15:18;9.10;94.70
5647;DHT22;2845;48.626;9.362;2024-01-30T13:17:52;9.30;94.70
5647;DHT22;2845;48.626;9.362;2024-01-30T13:20:27;9.40;94.50
5647;DHT22;2845;48.626;9.362;2024-01-30T13:23:02;9.40;94.50
5647;DHT22;2845;48.626;9.362;2024-01-30T13:25:36;9.50;94.40
5647;DHT22;2845;48.626;9.362;2024-01-30T13:28:11;9.50;94.50
5647;DHT22;2845;48.626;9.362;2024-01-30T13:33:21;9.70;94.40
5647;DHT22;2845;48.626;9.362;2024-01-30T13:35:55;10.50;94.70
5647;DHT22;2845;48.626;9.362;2024-01-30T13:38:29;9.70;94.30
5647;DHT22;2845;48.626;9.362;2024-01-30T13:41:04;11.60;94.90
5647;DHT22;2845;48.626;9.362;2024-01-30T13:43:38;9.70;94.40
5647;DHT22;2845;48.626;9.362;2024-01-30T13:46:14;11.00;94.90
5647;DHT22;2845;48.626;9.362;2024-01-30T13:48:48;9.50;94.50
5647;DHT22;2845;48.626;9.362;2024-01-30T13:51:23;9.30;94.60
5647;DHT22;2845;48.626;9.362;2024-01-30T13:53:57;9.20;94.10
5647;DHT22;2845;48.626;9.362;2024-01-30T13:56:31;9.10;94.40
5647;DHT22;2845;48.626;9.362;2024-01-30T13:59:06;9.10;94.60
5647;DHT22;2845;48.626;9.362;2024-01-30T14:01:41;9.10;95.00
5647;DHT22;2845;48.626;9.362;2024-01-30T14:04:16;9.10;94.90
5647;DHT22;2845;48.626;9.362;2024-01-30T14:06:50;9.70;95.30
5647;DHT22;2845;48.626;9.362;2024-01-30T14:09:36;9.10;94.90
5647;DHT22;2845;48.626;9.362;2024-01-30T14:12:10;9.00;95.00
5647;DHT22;2845;48.626;9.362;2024-01-30T14:14:44;9.00;95.10
5647;DHT22;2845;48.626;9.362;2024-01-30T14:17:19;9.00;95.40
5647;DHT22;2845;48.626;9.362;2024-01-30T14:19:54;8.90;95.00
5647;DHT22;2845;48.626;9.362;2024-01-30T14:22:28;9.00;95.20
5647;DHT22;2845;48.626;9.362;2024-01-30T14:25:02;8.80;95.30
5647;DHT22;2845;48.626;9.362;2024-01-30T14:27:37;8.80;95.50
5647;DHT22;2845;48.626;9.362;2024-01-30T14:30:12;10.70;95.90
5647;DHT22;2845;48.626;9.362;2024-01-30T14:35:22;8.90;95.70
5647;DHT22;2845;48.626;9.362;2024-01-30T14:37:56;8.80;95.70
5647;DHT22;2845;48.626;9.362;2024-01-30T14:40:31;8.80;95.80
5647;DHT22;2845;48.626;9.362;2024-01-30T14:43:05;8.80;96.00
5647;DHT22;2845;48.626;9.362;2024-01-30T14:45:39;8.80;96.00
5647;DHT22;2845;48.626;9.362;2024-01-30T14:48:16;8.70;95.90
5647;DHT22;2845;48.626;9.362;2024-01-30T14:50:51;8.70;96.00
5647;DHT22;2845;48.626;9.362;2024-01-30T14:53:27;9.90;96.50
5647;DHT22;2845;48.626;9.362;2024-01-30T14:56:02;7.10;95.50
5647;DHT22;2845;48.626;9.362;2024-01-30T14:58:37;8.40;95.70
5647;DHT22;2845;48.626;9.362;2024-01-30T15:01:12;10.60;96.30
5647;DHT22;2845;48.626;9.362;2024-01-30T15:03:48;8.30;95.90
5647;DHT22;2845;48.626;9.362;2024-01-30T15:06:24;8.30;95.80
5647;DHT22;2845;48.626;9.362;2024-01-30T15:08:58;5.90;95.30
5647;DHT22;2845;48.626;9.362;2024-01-30T15:11:32;8.90;95.80
5647;DHT22;2845;48.626;9.362;2024-01-30T15:14:08;7.50;95.30
5647;DHT22;2845;48.626;9.362;2024-01-30T15:16:42;8.00;95.70
5647;DHT22;2845;48.626;9.362;2024-01-30T15:21:52;7.80;95.90
5647;DHT22;2845;48.626;9.362;2024-01-30T15:24:26;7.70;96.00
5647;DHT22;2845;48.626;9.362;2024-01-30T15:27:01;9.30;96.50
5647;DHT22;2845;48.626;9.362;2024-01-30T15:29:36;7.40;97.00
5647;DHT22;2845;48.626;9.362;2024-01-30T15:32:10;10.70;97.80
5647;DHT22;2845;48.626;9.362;2024-01-30T15:34:46;7.30;96.90
5647;DHT22;2845;48.626;9.362;2024-01-30T15:37:21;7.10;96.50
5647;DHT22;2845;48.626;9.362;2024-01-30T15:39:55;7.00;96.50
5647;DHT22;2845;48.626;9.362;2024-01-30T15:42:29;10.90;97.60
5647;DHT22;2845;48.626;9.362;2024-01-30T15:45:04;7.00;96.60
5647;DHT22;2845;48.626;9.362;2024-01-30T15:47:39;6.90;96.70
5647;DHT22;2845;48.626;9.362;2024-01-30T15:52:49;6.80;97.10
5647;DHT22;2845;48.626;9.362;2024-01-30T15:55:24;6.80;97.10
5647;DHT22;2845;48.626;9.362;2024-01-30T15:57:58;7.40;97.30
5647;DHT22;2845;48.626;9.362;2024-01-30T16:00:33;5.20;96.70
5647;DHT22;2845;48.626;9.362;2024-01-30T16:03:07;6.70;97.00
5647;DHT22;2845;48.626;9.362;2024-01-30T16:05:43;7.00;97.20
5647;DHT22;2845;48.626;9.362;2024-01-30T16:08:17;6.50;97.20
5647;DHT22;2845;48.626;9.362;2024-01-30T16:10:51;6.40;97.20
5647;DHT22;2845;48.626;9.362;2024-01-30T16:13:25;8.90;98.40
5647;DHT22;2845;48.626;9.362;2024-01-30T16:16:00;6.30;97.40
5647;DHT22;2845;48.626;9.362;2024-01-30T16:18:34;6.20;97.40
5647;DHT22;2845;48.626;9.362;2024-01-30T16:21:10;6.20;97.50
5647;DHT22;2845;48.626;9.362;2024-01-30T16:23:46;6.10;97.60
5647;DHT22;2845;48.626;9.362;2024-01-30T16:26:21;6.10;97.70
5647;DHT22;2845;48.626;9.362;2024-01-30T16:28:56;6.00;97.70
5647;DHT22;2845;48.626;9.362;2024-01-30T16:31:30;9.90;99.00
5647;DHT22;2845;48.626;9.362;2024-01-30T16:34:05;8.60;98.50
5647;DHT22;2845;48.626;9.362;2024-01-30T16:36:40;5.90;97.90
5647;DHT22;2845;48.626;9.362;2024-01-30T16:39:16;5.80;98.00
5647;DHT22;2845;48.626;9.362;2024-01-30T16:41:50;5.70;98.00
5647;DHT22;2845;48.626;9.362;2024-01-30T16:44:24;5.70;98.10
5647;DHT22;2845;48.626;9.362;2024-01-30T16:46:58;5.70;98.10
5647;DHT22;2845;48.626;9.362;2024-01-30T16:49:33;6.60;99.10
5647;DHT22;2845;48.626;9.362;2024-01-30T16:54:43;7.80;98.80
5647;DHT22;2845;48.626;9.362;2024-01-30T16:57:17;5.40;98.40
5647;DHT22;2845;48.626;9.362;2024-01-30T16:59:51;5.40;98.40
5647;DHT22;2845;48.626;9.362;2024-01-30T17:02:26;5.40;98.50
5647;DHT22;2845;48.626;9.362;2024-01-30T17:05:00;5.40;98.50
5647;DHT22;2845;48.626;9.362;2024-01-30T17:07:54;5.30;98.80
5647;DHT22;2845;48.626;9.362;2024-01-30T17:10:28;7.80;99.40
5647;DHT22;2845;48.626;9.362;2024-01-30T17:13:05;5.30;98.80
5647;DHT22;2845;48.626;9.362;2024-01-30T17:15:39;5.20;98.90
5647;DHT22;2845;48.626;9.362;2024-01-30T17:18:13;5.20;98.90
5647;DHT22;2845;48.626;9.362;2024-01-30T17:20:47;5.20;99.10
5647;DHT22;2845;48.626;9.362;2024-01-30T17:23:23;5.10;98.90
5647;DHT22;2845;48.626;9.362;2024-01-30T17:25:58;5.10;99.10
5647;DHT22;2845;48.626;9.362;2024-01-30T17:28:32;5.10;99.00
5647;DHT22;2845;48.626;9.362;2024-01-30T17:31:07;5.10;99.00
5647;DHT22;2845;48.626;9.362;2024-01-30T17:33:41;5.10;99.00
5647;DHT22;2845;48.626;9.362;2024-01-30T17:36:16;5.10;99.00
5647;DHT22;2845;48.626;9.362;2024-01-30T17:38:52;5.10;99.20
5647;DHT22;2845;48.626;9.362;2024-01-30T17:41:26;5.00;99.10
5647;DHT22;2845;48.626;9.362;2024-01-30T17:44:00;5.00;99.10
5647;DHT22;2845;48.626;9.362;2024-01-30T17:46:35;5.10;99.10
5647;DHT22;2845;48.626;9.362;2024-01-30T17:49:10;9.20;99.90
5647;DHT22;2845;48.626;9.362;2024-01-30T17:51:45;5.20;99.90
5647;DHT22;2845;48.626;9.362;2024-01-30T17:54:21;4.80;99.90
5647;DHT22;2845;48.626;9.362;2024-01-30T17:56:56;9.60;99.90